Terminal Aerodrome Forecast
Issued by NWS

Home | Current Version | Previous Version | Text Only | Print | Product List | Glossary On
Versions: 1 2 3 4 5 6 7 8 9 10 11 12 13 14 15 16 17 18 19 20 21 22 23 24 25 26 27 28 29
000
FTUS41 KBOX 201120
TAFBAF
TAF
KBAF 201120Z 2012/2112 29003KT P6SM BKN020
     FM201400 20007KT P6SM BKN035
     FM201900 20010G18KT P6SM BKN035
     FM210000 19007KT P6SM SCT025
     FM210200 19007KT P6SM BKN025
     FM210900 16004KT 3SM BR BKN020=

USA.gov is the U.S. government's official web portal to all federal, state and local government web resources and services.